Agia Marina — SX5375 — position and weather

sailwx.info

Track history (hours):
 
Tides and Currents Weather Stations Pressure Air Temp Water Temp Dewpoint Dewpoint Depression Visibility Wind Speed Wind Dir Waves Ship Positions

Agia Marina

Last reported at 2016-May-28 18:33 UTC. Time now 2016-May-30 14:37 UTC.
Position N 37°33' E 025°33'.

Length 59 m; draft 2.5 m.

Type: Cargo ship. MMSI: 237042500.

Date/timePositionNaut miles runAvg speedWind from/ knotsBaromVisibWave heightAir tempDewpointWater temp
2016-May-28 18:33N 37°33' E 025°33'8 7.1
2016-May-28 17:28N 37°31' E 025°23'5 5.5
2016-May-28 16:33N 37°28' E 025°18'1 1.0
2016-May-28 15:33N 37°28' E 025°19'3 2.8
2016-May-28 14:33N 37°29' E 025°16'6 6.5
2016-May-28 13:34N 37°32' E 025°09'0 0.0
2016-May-28 12:33N 37°32' E 025°09'0 0.0
2016-May-28 11:33N 37°32' E 025°09'0 0.0
2016-May-28 10:33N 37°32' E 025°09'0 0.2
2016-May-28 09:33N 37°32' E 025°09'7 6.7
2016-May-28 08:33N 37°29' E 025°02'8 0.6
2016-May-27 17:33N 37°22' E 024°56'7 7.5
2016-May-27 16:33N 37°17' E 024°49'26 1.5
2016-May-26 22:31N 37°27' E 024°18'7 7.3
2016-May-26 21:31N 37°32' E 024°12'7 7.0
2016-May-26 20:31N 37°38' E 024°06'  
2016-May-20 01:20N 38°01' E 024°36'6 7.3
2016-May-20 00:33N 37°56' E 024°32'7 6.9
2016-May-19 23:33N 37°50' E 024°28'7 7.1
2016-May-19 22:33N 37°44' E 024°23'5 3.6
2016-May-19 21:04N 37°40' E 024°19'6 6.9
2016-May-19 20:12N 37°39' E 024°11'6 7.1
2016-May-19 19:20N 37°38' E 024°04'6 7.5
2016-May-19 18:33N 37°38' E 023°56'8 7.5
2016-May-19 17:33N 37°38' E 023°47'7 7.5
2016-May-19 16:33N 37°39' E 023°38'7 7.3
2016-May-19 15:33N 37°40' E 023°28'5 5.4
2016-May-19 14:33N 37°45' E 023°26'0 0.0
2016-May-19 13:31N 37°45' E 023°26'0 0.0
2016-May-19 12:30N 37°45' E 023°26'0 0.0
2016-May-19 11:17N 37°45' E 023°26'3 4.0
2016-May-19 10:34N 37°47' E 023°27'7 7.1
2016-May-19 09:33N 37°53' E 023°33'6 5.7
2016-May-19 08:33N 37°58' E 023°33'4 4.3
2016-May-19 07:34N 38°02' E 023°36'0 0.0
2016-May-19 06:33N 38°02' E 023°36'0 0.0
2016-May-19 05:33N 38°02' E 023°36'0 0.0
2016-May-19 04:33N 38°02' E 023°36'0 0.0
2016-May-19 03:33N 38°02' E 023°36'0 0.0
2016-May-19 02:33N 38°02' E 023°36'0 0.0
2016-May-19 01:33N 38°02' E 023°36'0 0.0
2016-May-19 00:33N 38°02' E 023°36'0 0.0
2016-May-18 23:33N 38°02' E 023°36'0 0.0
2016-May-18 22:33N 38°02' E 023°36'0 0.0
2016-May-18 21:33N 38°02' E 023°36'0 0.0
2016-May-18 20:33N 38°02' E 023°36'0 0.0
2016-May-18 19:32N 38°02' E 023°36'  
Track history (hours):
 
Tides and Currents Weather Stations Pressure Air Temp Water Temp Dewpoint Dewpoint Depression Visibility Wind Speed Wind Dir Waves Ship Positions

Agia Marina

Last reported at 2016-May-28 18:33 UTC. Time now 2016-May-30 14:37 UTC.
Position N 37°33' E 025°33'.

Length 59 m; draft 2.5 m.

Type: Cargo ship. MMSI: 237042500.

Date/timePositionNaut miles runAvg speedWind from/ knotsBaromVisibWave heightAir tempDewpointWater temp
2016-May-28 18:33N 37°33' E 025°33'8 7.1
2016-May-28 17:28N 37°31' E 025°23'5 5.5
2016-May-28 16:33N 37°28' E 025°18'1 1.0
2016-May-28 15:33N 37°28' E 025°19'3 2.8
2016-May-28 14:33N 37°29' E 025°16'6 6.5
2016-May-28 13:34N 37°32' E 025°09'0 0.0
2016-May-28 12:33N 37°32' E 025°09'0 0.0
2016-May-28 11:33N 37°32' E 025°09'0 0.0
2016-May-28 10:33N 37°32' E 025°09'0 0.2
2016-May-28 09:33N 37°32' E 025°09'7 6.7
2016-May-28 08:33N 37°29' E 025°02'8 0.6
2016-May-27 17:33N 37°22' E 024°56'7 7.5
2016-May-27 16:33N 37°17' E 024°49'26 1.5
2016-May-26 22:31N 37°27' E 024°18'7 7.3
2016-May-26 21:31N 37°32' E 024°12'7 7.0
2016-May-26 20:31N 37°38' E 024°06'  
2016-May-20 01:20N 38°01' E 024°36'6 7.3
2016-May-20 00:33N 37°56' E 024°32'7 6.9
2016-May-19 23:33N 37°50' E 024°28'7 7.1
2016-May-19 22:33N 37°44' E 024°23'5 3.6
2016-May-19 21:04N 37°40' E 024°19'6 6.9
2016-May-19 20:12N 37°39' E 024°11'6 7.1
2016-May-19 19:20N 37°38' E 024°04'6 7.5
2016-May-19 18:33N 37°38' E 023°56'8 7.5
2016-May-19 17:33N 37°38' E 023°47'7 7.5
2016-May-19 16:33N 37°39' E 023°38'7 7.3
2016-May-19 15:33N 37°40' E 023°28'5 5.4
2016-May-19 14:33N 37°45' E 023°26'0 0.0
2016-May-19 13:31N 37°45' E 023°26'0 0.0
2016-May-19 12:30N 37°45' E 023°26'0 0.0
2016-May-19 11:17N 37°45' E 023°26'3 4.0
2016-May-19 10:34N 37°47' E 023°27'7 7.1
2016-May-19 09:33N 37°53' E 023°33'6 5.7
2016-May-19 08:33N 37°58' E 023°33'4 4.3
2016-May-19 07:34N 38°02' E 023°36'0 0.0
2016-May-19 06:33N 38°02' E 023°36'0 0.0
2016-May-19 05:33N 38°02' E 023°36'0 0.0
2016-May-19 04:33N 38°02' E 023°36'0 0.0
2016-May-19 03:33N 38°02' E 023°36'0 0.0
2016-May-19 02:33N 38°02' E 023°36'0 0.0
2016-May-19 01:33N 38°02' E 023°36'0 0.0
2016-May-19 00:33N 38°02' E 023°36'0 0.0
2016-May-18 23:33N 38°02' E 023°36'0 0.0
2016-May-18 22:33N 38°02' E 023°36'0 0.0
2016-May-18 21:33N 38°02' E 023°36'0 0.0
2016-May-18 20:33N 38°02' E 023°36'0 0.0
2016-May-18 19:32N 38°02' E 023°36'  

Dump ship's entire track history